Terminal Aerodrome Forecast
Issued by NWS Jackson, MS

Home | Current Version | Previous Version | Text Only | Print | Product List | Glossary On
Versions: 1 2 3 4 5 6 7 8 9 10 11 12
118
FTUS44 KJAN 231139
TAFGWO
TAF
KGWO 231139Z 2312/2412 00000KT 6SM BR FEW050 SCT250
     FM231400 05004KT P6SM VCTS SCT050CB BKN250
     FM240100 02005KT P6SM BKN050 BKN250=

USA.gov is the U.S. government's official web portal to all federal, state and local government web resources and services.